Time;durP1;ratioP1;P1;durP2;ratioP2;P2;SDS_P1;SDS_P2;PMS_P1;PMS_P2;Temp;Humidity;BMP_temperature;BMP_pressure;BME280_temperature;BME280_humidity;BME280_pressure;Samples;Min_cycle;Max_cycle;Signal;HPM_P1;HPM_P2
2022/09/13 00:01:35;;;;;;;0.50;0.50;;;13.80;70.60;;;13.96;56.40;94849.25;4995645;28;20227;-78
2022/09/13 00:04:03;;;;;;;0.60;0.60;;;13.80;70.60;;;13.93;56.45;94853.94;5010947;28;20556;-78
2022/09/13 00:06:31;;;;;;;0.60;0.60;;;13.70;70.60;;;13.88;56.54;94851.13;5011267;28;20252;-78
2022/09/13 00:09:00;;;;;;;0.60;0.60;;;13.70;70.70;;;13.87;56.42;94859.28;4997554;28;20208;-78
2022/09/13 00:11:30;;;;;;;0.70;0.70;;;13.70;70.60;;;13.83;56.22;94855.44;5013827;28;20260;-78
2022/09/13 00:13:58;;;;;;;0.60;0.60;;;13.70;70.90;;;13.78;56.55;94850.81;5013398;28;20208;-78
2022/09/13 00:16:28;;;;;;;0.65;0.65;;;13.60;70.90;;;13.77;56.65;94849.19;5026093;28;20279;-78
2022/09/13 00:18:56;;;;;;;0.65;0.65;;;13.60;71.10;;;13.74;56.46;94854.88;4990698;28;20212;-77
2022/09/13 00:21:23;;;;;;;0.60;0.60;;;13.60;71.00;;;13.71;56.77;94840.31;5037846;28;20224;-77
2022/09/13 00:23:54;;;;;;;0.60;0.60;;;13.60;71.10;;;13.66;56.69;94840.13;4995886;28;20205;-79
2022/09/13 00:26:27;;;;;;;0.60;0.60;;;13.60;71.50;;;13.66;56.84;94831.41;5010444;28;20323;-78
2022/09/13 00:28:58;;;;;;;0.60;0.60;;;13.50;71.80;;;13.62;56.79;94841.56;5012489;28;20230;-78
2022/09/13 00:31:27;;;;;;;0.70;0.70;;;13.50;71.60;;;13.58;56.68;94830.63;5029854;28;20463;-78
2022/09/13 00:33:55;;;;;;;0.60;0.60;;;13.50;71.10;;;13.57;56.47;94833.50;5025838;28;20687;-78
2022/09/13 00:36:22;;;;;;;0.60;0.60;;;13.40;71.10;;;13.53;56.60;94825.22;5029993;28;20293;-78
2022/09/13 00:38:49;;;;;;;0.70;0.70;;;13.40;71.10;;;13.49;56.67;94821.38;5016450;28;20219;-78
2022/09/13 00:41:19;;;;;;;0.60;0.60;;;13.40;71.20;;;13.44;56.97;94814.13;5015326;28;20224;-78
2022/09/13 00:43:50;;;;;;;0.60;0.60;;;13.30;71.70;;;13.45;57.14;94820.19;5012369;28;20627;-78
2022/09/13 00:46:28;;;;;;;0.60;0.60;;;13.30;71.70;;;13.44;57.65;94829.13;5029706;28;20231;-78
2022/09/13 00:49:21;;;;;;;0.60;0.60;;;13.30;72.30;;;13.39;57.10;94816.59;5030403;28;20203;-79
2022/09/13 00:51:54;;;;;;;0.60;0.60;;;13.30;72.20;;;13.40;57.46;94814.75;5031546;28;20223;-78
2022/09/13 00:54:26;;;;;;;0.60;0.60;;;13.30;72.10;;;13.38;57.28;94811.53;5025486;28;20681;-78
2022/09/13 00:56:56;;;;;;;0.60;0.60;;;13.20;71.90;;;13.37;57.39;94809.88;5002421;28;20433;-78
2022/09/13 00:59:31;;;;;;;0.70;0.70;;;13.20;71.90;;;13.35;57.40;94810.06;5017040;28;20681;-78
2022/09/13 01:02:00;;;;;;;0.60;0.60;;;13.20;72.20;;;13.34;57.38;94808.47;4999553;28;20220;-78
2022/09/13 01:04:31;;;;;;;0.60;0.60;;;13.20;72.00;;;13.31;57.41;94801.00;5011030;28;20203;-78
2022/09/13 01:07:03;;;;;;;0.60;0.60;;;13.20;72.20;;;13.29;57.52;94803.84;4979417;28;20293;-78
2022/09/13 01:09:35;;;;;;;0.60;0.60;;;13.20;72.30;;;13.27;57.54;94802.44;4994424;28;20283;-78
2022/09/13 01:12:24;;;;;;;0.70;0.70;;;13.20;72.10;;;13.25;57.75;94801.84;5005330;28;20239;-78
2022/09/13 01:14:52;;;;;;;0.70;0.70;;;13.10;72.60;;;13.24;57.63;94797.59;5030112;28;20200;-78
2022/09/13 01:17:19;;;;;;;0.80;0.80;;;13.10;71.90;;;13.20;58.42;94796.41;4995150;28;20663;-78
2022/09/13 01:19:46;;;;;;;0.60;0.60;;;13.10;72.00;;;13.20;57.61;94799.03;5010310;28;20204;-78
2022/09/13 01:22:32;;;;;;;0.60;0.60;;;13.10;72.10;;;13.16;57.87;94790.75;5010805;28;20271;-78
2022/09/13 01:25:44;;;;;;;0.70;0.70;;;13.00;72.00;;;13.11;57.63;94791.38;5030132;28;20278;-78
2022/09/13 01:28:33;;;;;;;0.60;0.60;;;13.00;73.00;;;13.10;58.00;94792.38;5011739;28;20331;-78
2022/09/13 01:31:33;;;;;;;0.80;0.80;;;13.00;72.60;;;13.02;57.78;94782.09;5026076;28;20216;-77
2022/09/13 01:34:36;;;;;;;0.80;0.80;;;12.90;72.80;;;13.00;57.86;94772.78;5018343;28;20197;-78
2022/09/13 01:37:51;;;;;;;0.70;0.70;;;12.90;72.60;;;12.90;57.37;94768.81;5030052;28;20698;-79
2022/09/13 01:41:13;;;;;;;0.70;0.70;;;12.90;72.70;;;12.88;57.66;94770.81;4971305;28;20201;-77
2022/09/13 01:44:05;;;;;;;0.70;0.70;;;12.80;72.80;;;12.86;57.96;94769.44;5006225;28;20200;-78
2022/09/13 01:46:45;;;;;;;0.70;0.70;;;12.80;72.60;;;12.82;57.96;94761.13;5033560;28;20221;-77
2022/09/13 01:49:30;;;;;;;0.60;0.60;;;12.80;71.90;;;12.80;58.25;94766.63;5024902;28;20655;-78
2022/09/13 01:52:31;;;;;;;0.60;0.60;;;12.70;73.00;;;12.76;58.13;94759.34;5010916;28;20220;-78
2022/09/13 01:55:29;;;;;;;0.60;0.60;;;12.70;73.10;;;12.76;58.16;94757.50;5016155;28;20204;-78
2022/09/13 01:58:12;;;;;;;0.60;0.60;;;12.70;73.30;;;12.75;58.44;94758.53;5030691;28;20227;-78
2022/09/13 02:01:15;;;;;;;0.60;0.60;;;12.70;73.20;;;12.71;58.40;94751.28;4980209;28;20205;-77
2022/09/13 02:03:56;;;;;;;0.80;0.80;;;12.60;73.10;;;12.72;58.16;94752.88;5013407;28;20551;-78
2022/09/13 02:06:33;;;;;;;0.70;0.70;;;12.60;72.90;;;12.72;58.52;94743.16;4996808;28;20298;-78
2022/09/13 02:09:11;;;;;;;0.70;0.70;;;12.60;73.10;;;12.71;58.45;94741.53;5014567;28;20210;-77
2022/09/13 02:11:40;;;;;;;0.65;0.65;;;12.60;72.90;;;12.72;58.70;94737.91;5022710;28;20224;-78
2022/09/13 02:14:15;;;;;;;0.57;0.57;;;12.60;72.80;;;12.73;58.60;94730.81;5022826;28;20646;-78
2022/09/13 02:16:59;;;;;;;0.60;0.60;;;12.60;73.30;;;12.71;58.30;94731.03;5011130;28;20228;-77
2022/09/13 02:19:37;;;;;;;0.70;0.70;;;12.60;73.40;;;12.72;58.71;94731.81;5024291;28;20205;-78
2022/09/13 02:22:07;;;;;;;0.60;0.60;;;12.60;73.10;;;12.71;58.67;94725.75;5029503;28;20332;-79
2022/09/13 02:24:44;;;;;;;0.60;0.60;;;12.60;73.20;;;12.70;58.59;94720.72;5020287;28;20198;-78
2022/09/13 02:27:22;;;;;;;0.80;0.80;;;12.60;73.60;;;12.68;58.79;94720.91;5013957;28;20219;-78
2022/09/13 02:29:56;;;;;;;0.70;0.70;;;12.60;73.80;;;12.68;58.86;94715.63;5022949;28;20201;-78
2022/09/13 02:32:35;;;;;;;0.60;0.60;;;12.60;73.40;;;12.68;58.81;94720.91;5019575;28;20498;-78
2022/09/13 02:35:21;;;;;;;0.60;0.60;;;12.50;73.90;;;12.66;58.88;94717.69;5020019;28;20207;-78
2022/09/13 02:37:56;;;;;;;0.60;0.60;;;12.60;74.10;;;12.65;58.50;94716.88;5018253;28;20216;-78
2022/09/13 02:40:31;;;;;;;0.80;0.80;;;12.60;73.50;;;12.64;58.71;94717.88;5014969;28;20220;-78
2022/09/13 02:43:13;;;;;;;0.68;0.68;;;12.50;73.40;;;12.62;58.79;94721.72;5019291;28;20688;-78
2022/09/13 02:45:59;;;;;;;0.60;0.60;;;12.50;73.90;;;12.60;58.69;94726.41;5027948;28;20196;-78
2022/09/13 02:48:47;;;;;;;0.70;0.70;;;12.50;73.60;;;12.58;58.57;94720.56;5018431;28;20663;-78
2022/09/13 02:51:43;;;;;;;0.70;0.70;;;12.60;74.80;;;12.54;58.81;94722.00;5035610;28;20479;-78
2022/09/13 02:54:28;;;;;;;0.70;0.70;;;12.50;73.80;;;12.53;58.94;94723.00;5021627;28;20209;-76
2022/09/13 02:57:12;;;;;;;0.70;0.70;;;12.40;73.00;;;12.49;59.31;94720.78;5019297;28;20224;-77
2022/09/13 02:59:39;;;;;;;0.60;0.60;;;12.40;73.60;;;12.48;59.04;94713.09;4991909;28;20193;-76
2022/09/13 03:02:21;;;;;;;0.70;0.70;;;12.40;73.20;;;12.48;59.39;94721.78;5010771;28;20332;-78
2022/09/13 03:04:50;;;;;;;0.80;0.80;;;12.40;73.90;;;12.49;59.64;94719.97;5026377;28;20196;-78
2022/09/13 03:07:17;;;;;;;0.70;0.70;;;12.40;73.60;;;12.48;59.08;94711.25;5028571;28;20208;-78
2022/09/13 03:09:55;;;;;;;0.70;0.70;;;12.40;73.50;;;12.48;59.26;94710.47;5009236;28;20205;-77
2022/09/13 03:12:43;;;;;;;0.60;0.60;;;12.40;74.10;;;12.47;59.01;94703.59;5030402;28;20231;-78
2022/09/13 03:15:51;;;;;;;0.60;0.60;;;12.40;74.50;;;12.43;59.09;94711.09;5019988;28;20193;-78
2022/09/13 03:19:11;;;;;;;0.70;0.70;;;12.30;74.30;;;12.35;58.95;94700.78;5026044;28;20470;-77
2022/09/13 03:22:00;;;;;;;0.70;0.70;;;12.30;74.00;;;12.32;59.01;94706.50;4973950;28;20232;-77
2022/09/13 03:25:11;;;;;;;0.70;0.70;;;12.30;73.90;;;12.28;59.22;94718.41;5028531;28;20192;-78
2022/09/13 03:27:59;;;;;;;0.60;0.60;;;12.20;74.00;;;12.25;59.81;94717.00;5020423;28;20315;-78
2022/09/13 03:30:27;;;;;;;0.60;0.60;;;12.30;74.20;;;12.25;59.56;94705.69;5026657;28;20216;-78
2022/09/13 03:33:31;;;;;;;0.70;0.70;;;12.20;73.50;;;12.26;59.72;94715.19;5011334;28;20209;-78
2022/09/13 03:36:19;;;;;;;0.60;0.60;;;12.20;74.60;;;12.26;59.47;94717.84;5017883;28;20273;-77
2022/09/13 03:39:12;;;;;;;0.70;0.70;;;12.20;74.50;;;12.20;59.36;94705.50;5016329;28;20617;-76
2022/09/13 03:41:49;;;;;;;0.60;0.60;;;12.20;74.50;;;12.20;59.33;94705.50;5027140;28;20267;-78
2022/09/13 03:44:20;;;;;;;0.60;0.60;;;12.20;73.90;;;12.21;59.42;94718.44;5011578;28;20192;-78
2022/09/13 03:46:53;;;;;;;0.60;0.60;;;12.10;73.80;;;12.20;59.59;94708.16;5012091;28;20216;-78
2022/09/13 03:49:22;;;;;;;0.70;0.70;;;12.10;73.70;;;12.19;59.44;94698.63;4998766;28;20633;-78
2022/09/13 03:51:51;;;;;;;0.60;0.60;;;12.10;73.80;;;12.15;59.29;94701.66;5029180;28;20224;-78
2022/09/13 03:54:27;;;;;;;0.60;0.60;;;12.10;73.80;;;12.15;59.71;94706.13;5029386;28;20698;-77
2022/09/13 03:57:09;;;;;;;0.80;0.80;;;12.10;74.30;;;12.12;59.68;94704.72;5009852;28;20226;-78
2022/09/13 03:59:42;;;;;;;0.68;0.68;;;12.10;74.60;;;12.10;59.97;94696.22;5009944;28;20196;-78
2022/09/13 04:02:10;;;;;;;0.68;0.68;;;12.00;73.90;;;12.09;59.77;94691.97;5012384;28;20275;-77
2022/09/13 04:04:42;;;;;;;0.70;0.70;;;12.10;74.10;;;12.09;59.90;94684.09;5019888;28;20220;-78
2022/09/13 04:07:13;;;;;;;0.70;0.70;;;12.10;74.50;;;12.10;60.12;94690.97;5010136;28;20224;-78
2022/09/13 04:09:40;;;;;;;0.60;0.60;;;12.10;74.20;;;12.11;60.20;94699.69;5012534;28;20635;-78
2022/09/13 04:12:09;;;;;;;0.70;0.70;;;12.10;74.10;;;12.11;60.32;94707.56;5012459;28;20240;-78
2022/09/13 04:14:36;;;;;;;0.60;0.60;;;12.00;74.10;;;12.11;60.37;94705.72;5028831;28;20586;-78
2022/09/13 04:17:03;;;;;;;0.60;0.60;;;12.10;74.30;;;12.10;60.36;94703.31;4994748;28;20240;-78
2022/09/13 04:19:31;;;;;;;0.63;0.63;;;12.10;74.30;;;12.11;60.27;94710.19;5013419;28;20212;-79
2022/09/13 04:21:58;;;;;;;0.70;0.70;;;12.00;74.20;;;12.10;60.49;94714.63;4995182;28;20635;-78
2022/09/13 04:24:27;;;;;;;0.60;0.60;;;12.10;74.30;;;12.10;60.46;94705.94;4994168;28;20247;-78
2022/09/13 04:26:55;;;;;;;0.60;0.60;;;12.10;74.50;;;12.09;60.32;94705.13;4995379;28;20228;-79
2022/09/13 04:29:24;;;;;;;0.70;0.70;;;12.10;74.40;;;12.09;60.27;94707.75;4979562;28;20200;-79
2022/09/13 04:31:53;;;;;;;0.70;0.70;;;12.10;74.60;;;12.09;60.59;94720.91;4995331;28;20313;-79
2022/09/13 04:34:21;;;;;;;0.80;0.80;;;12.10;74.70;;;12.10;60.73;94724.34;5007862;28;20192;-79
2022/09/13 04:36:52;;;;;;;0.60;0.60;;;12.10;74.70;;;12.12;60.75;94724.94;5013100;28;20228;-79
2022/09/13 04:39:20;;;;;;;0.60;0.60;;;12.00;74.80;;;12.10;60.68;94719.09;5031939;28;20184;-79
2022/09/13 04:41:48;;;;;;;0.65;0.65;;;12.00;74.80;;;12.13;60.61;94714.22;5030588;28;20224;-79
2022/09/13 04:44:17;;;;;;;0.70;0.70;;;12.00;74.90;;;12.16;60.75;94726.94;5024526;28;20203;-79
2022/09/13 04:46:47;;;;;;;0.60;0.60;;;12.10;75.10;;;12.16;60.37;94726.94;5022622;28;20220;-78
2022/09/13 04:49:17;;;;;;;0.60;0.60;;;12.10;75.20;;;12.18;60.96;94721.47;4995882;28;20286;-79
2022/09/13 04:51:44;;;;;;;0.60;0.60;;;12.10;75.00;;;12.21;60.97;94720.28;5045911;28;20756;-78
2022/09/13 04:54:12;;;;;;;0.60;0.60;;;12.10;75.10;;;12.22;60.97;94714.81;5026311;28;20207;-78
2022/09/13 04:56:43;;;;;;;0.70;0.70;;;12.10;75.20;;;12.27;61.13;94716.81;5009645;28;20279;-79
2022/09/13 04:59:12;;;;;;;0.60;0.60;;;12.20;75.50;;;12.28;61.34;94711.34;5011209;28;20184;-79
2022/09/13 05:01:40;;;;;;;0.60;0.60;;;12.20;75.70;;;12.37;61.19;94717.19;5014001;28;20228;-79
2022/09/13 05:04:09;;;;;;;0.60;0.60;;;12.30;75.80;;;12.42;61.48;94722.63;5023356;28;20199;-79
2022/09/13 05:06:37;;;;;;;0.60;0.60;;;12.30;76.20;;;12.49;61.40;94720.78;4994906;28;20548;-79
2022/09/13 05:09:04;;;;;;;0.60;0.60;;;12.50;76.40;;;12.58;61.51;94723.19;5008668;28;20203;-79
2022/09/13 05:11:32;;;;;;;0.60;0.60;;;12.40;76.30;;;12.64;61.13;94717.09;5031169;28;20212;-80
2022/09/13 05:14:01;;;;;;;0.60;0.60;;;12.50;76.40;;;12.70;61.95;94720.72;5024057;28;20192;-79
2022/09/13 05:16:31;;;;;;;0.70;0.70;;;12.50;76.40;;;12.77;61.77;94719.66;5010933;28;20224;-79
2022/09/13 05:18:59;;;;;;;0.60;0.60;;;12.60;76.40;;;12.83;61.96;94710.13;5011374;28;20566;-78
2022/09/13 05:21:28;;;;;;;0.60;0.60;;;12.70;76.50;;;12.89;61.89;94711.91;5011224;28;20228;-79
2022/09/13 05:23:57;;;;;;;0.60;0.60;;;12.70;76.50;;;12.95;61.89;94711.06;5004100;28;20189;-79
2022/09/13 05:26:29;;;;;;;0.80;0.80;;;12.80;76.60;;;13.01;61.97;94711.22;5030589;28;20228;-79
2022/09/13 05:28:58;;;;;;;0.60;0.60;;;12.80;76.60;;;13.03;62.01;94712.63;5010919;28;20311;-80
2022/09/13 05:31:30;;;;;;;0.60;0.60;;;12.90;76.60;;;13.08;61.84;94712.00;5011119;28;20231;-79
2022/09/13 05:34:06;;;;;;;0.60;0.60;;;12.90;76.60;;;13.16;62.18;94716.19;5031899;28;20215;-80
2022/09/13 05:36:33;;;;;;;0.50;0.50;;;13.00;76.70;;;13.20;61.99;94710.28;5010796;28;20234;-79
2022/09/13 05:39:00;;;;;;;0.60;0.60;;;13.10;76.80;;;13.26;62.22;94711.28;4998715;28;20709;-80
2022/09/13 05:41:48;;;;;;;0.65;0.65;;;13.20;76.90;;;13.33;62.32;94709.41;5003248;28;20718;-78
2022/09/13 05:44:16;;;;;;;0.57;0.57;;;13.30;76.90;;;13.43;62.25;94715.03;5018177;28;20193;-80
2022/09/13 05:46:47;;;;;;;0.60;0.60;;;13.30;76.90;;;13.53;62.62;94711.09;5014570;28;20228;-79
2022/09/13 05:49:14;;;;;;;0.60;0.60;;;13.30;77.70;;;13.64;62.75;94723.56;5015491;28;20181;-79
2022/09/13 05:51:41;;;;;;;0.50;0.50;;;13.50;77.60;;;13.76;62.95;94710.50;5014965;28;20216;-79
2022/09/13 05:54:11;;;;;;;0.60;0.60;;;13.60;77.90;;;13.90;63.12;94709.38;5019502;28;20727;-79
2022/09/13 05:56:39;;;;;;;0.63;0.63;;;13.70;78.40;;;14.04;63.01;94710.03;5016903;28;20212;-79
2022/09/13 05:59:07;;;;;;;0.60;0.60;;;13.90;78.00;;;14.16;62.87;94699.56;4998735;28;20616;-80
2022/09/13 06:01:34;;;;;;;0.80;0.80;;;14.00;78.00;;;14.26;63.11;94696.44;5010488;28;20227;-79
2022/09/13 06:04:01;;;;;;;0.60;0.60;;;14.10;77.80;;;14.35;63.13;94695.09;5017572;28;20192;-80
2022/09/13 06:06:29;;;;;;;0.60;0.60;;;14.20;77.60;;;14.45;62.60;94689.28;5029475;28;20220;-79
2022/09/13 06:08:56;;;;;;;0.60;0.60;;;14.40;77.70;;;14.54;62.74;94687.19;4998344;28;20200;-79
2022/09/13 06:11:25;;;;;;;0.60;0.60;;;14.40;77.70;;;14.60;62.99;94673.09;5013789;28;20655;-79
2022/09/13 06:13:53;;;;;;;0.70;0.70;;;14.40;77.70;;;14.67;62.65;94668.56;5028439;28;20197;-79
2022/09/13 06:16:20;;;;;;;0.60;0.60;;;14.60;77.80;;;14.74;62.58;94668.47;5012860;28;20221;-79
2022/09/13 06:18:48;;;;;;;0.60;0.60;;;14.60;77.90;;;14.80;62.40;94672.06;4998333;28;20209;-79
2022/09/13 06:21:19;;;;;;;0.60;0.60;;;14.70;77.70;;;14.87;62.69;94688.63;5014251;28;20641;-79
2022/09/13 06:23:52;;;;;;;0.60;0.60;;;14.70;77.90;;;14.93;62.35;94689.53;5000906;28;20749;-80
2022/09/13 06:26:25;;;;;;;0.70;0.70;;;14.80;77.60;;;14.99;62.45;94667.50;4997666;28;20266;-79
2022/09/13 06:28:56;;;;;;;0.70;0.70;;;14.90;77.70;;;15.05;62.37;94664.00;4998894;28;20200;-78
2022/09/13 06:31:27;;;;;;;0.50;0.50;;;15.00;77.50;;;15.10;62.30;94669.41;5011906;28;20229;-81
2022/09/13 06:34:01;;;;;;;0.50;0.50;;;15.00;77.40;;;15.19;62.18;94680.44;5013943;28;20286;-80
2022/09/13 06:36:30;;;;;;;0.50;0.50;;;15.10;77.50;;;15.26;62.85;94688.25;5013119;28;20227;-80
2022/09/13 06:38:59;;;;;;;0.57;0.57;;;15.20;77.20;;;15.32;62.27;94677.59;4998322;28;20212;-81
2022/09/13 06:41:27;;;;;;;0.60;0.60;;;15.20;77.20;;;15.42;62.30;94684.16;4997910;28;20223;-79
2022/09/13 06:43:59;;;;;;;0.50;0.50;;;15.30;77.20;;;15.50;62.06;94683.81;5001513;28;20212;-80
2022/09/13 06:46:29;;;;;;;0.60;0.60;;;15.40;77.20;;;15.59;62.30;94685.09;5001575;28;20236;-80
2022/09/13 06:49:02;;;;;;;0.60;0.60;;;15.50;77.30;;;15.71;62.59;94687.75;5036559;28;20211;-80
2022/09/13 06:51:31;;;;;;;0.55;0.55;;;15.60;77.40;;;15.84;62.16;94686.75;4997669;28;20614;-80
2022/09/13 06:53:59;;;;;;;0.43;0.43;;;15.70;77.40;;;15.98;62.68;94690.75;5013522;28;20208;-81
2022/09/13 06:56:32;;;;;;;0.50;0.50;;;15.80;77.30;;;16.14;62.59;94691.91;5003040;28;20251;-80
2022/09/13 06:59:03;;;;;;;0.57;0.57;;;16.00;77.50;;;16.29;62.68;94691.41;5013708;28;20219;-80
2022/09/13 07:01:35;;;;;;;0.50;0.50;;;16.10;77.40;;;16.46;62.75;94682.75;5013053;28;20294;-79
2022/09/13 07:04:12;;;;;;;0.60;0.60;;;16.30;77.40;;;16.62;62.26;94681.22;5016712;28;20330;-81
2022/09/13 07:06:42;;;;;;;0.50;0.50;;;16.50;77.30;;;16.77;61.99;94686.81;5017264;28;20208;-81
2022/09/13 07:09:20;;;;;;;0.40;0.40;;;16.60;77.10;;;16.93;62.20;94673.84;4987661;28;20205;-81
2022/09/13 07:11:50;;;;;;;0.50;0.50;;;16.80;77.00;;;17.07;61.78;94672.53;5004597;28;20216;-81
2022/09/13 07:14:26;;;;;;;0.50;0.50;;;16.90;76.80;;;17.21;62.00;94674.88;5012351;28;20212;-81
2022/09/13 07:16:54;;;;;;;0.50;0.50;;;17.10;76.60;;;17.33;61.69;94666.88;5023229;28;20223;-80
2022/09/13 07:19:26;;;;;;;0.50;0.50;;;17.20;76.30;;;17.44;61.31;94661.50;5002719;28;20700;-81
2022/09/13 07:21:56;;;;;;;0.50;0.50;;;17.30;76.20;;;17.55;60.86;94666.94;5013315;28;20699;-81
2022/09/13 07:24:24;;;;;;;0.50;0.50;;;17.50;76.20;;;17.67;60.96;94677.47;5025665;28;20231;-82
2022/09/13 07:26:51;;;;;;;0.50;0.50;;;17.60;76.20;;;17.78;61.05;94681.88;5016825;28;20234;-81
2022/09/13 07:29:22;;;;;;;0.50;0.50;;;17.70;76.10;;;17.88;60.86;94676.75;4982615;28;20208;-81
2022/09/13 07:31:53;;;;;;;0.50;0.50;;;17.70;75.70;;;17.96;60.40;94677.41;5000845;28;20312;-81
2022/09/13 07:34:22;;;;;;;0.50;0.50;;;17.90;75.60;;;18.03;60.25;94689.44;5009227;28;20216;-81
2022/09/13 07:36:51;;;;;;;0.50;0.50;;;18.00;75.50;;;18.10;60.69;94685.81;5013099;28;20236;-80
2022/09/13 07:39:18;;;;;;;0.50;0.50;;;18.00;75.30;;;18.09;59.99;94682.38;5038383;28;20258;-81
2022/09/13 07:41:50;;;;;;;0.50;0.50;;;18.10;75.30;;;18.17;60.21;94687.25;5025309;28;20315;-80
2022/09/13 07:44:17;;;;;;;0.60;0.60;;;18.20;75.30;;;18.21;60.50;94683.06;4996085;28;20219;-81
2022/09/13 07:46:44;;;;;;;0.50;0.50;;;18.20;75.30;;;18.28;60.13;94679.44;5012365;28;20231;-80
2022/09/13 07:49:15;;;;;;;0.50;0.50;;;18.30;75.30;;;18.34;60.15;94679.22;5012816;28;20192;-80
2022/09/13 07:51:43;;;;;;;0.50;0.50;;;18.30;75.30;;;18.45;60.04;94688.13;5027591;28;20274;-80
2022/09/13 07:54:16;;;;;;;0.60;0.60;;;18.40;75.40;;;18.53;60.52;94681.59;5002968;28;20201;-80
2022/09/13 07:56:44;;;;;;;0.50;0.50;;;18.50;75.40;;;18.64;60.78;94683.31;4995310;28;20227;-81
2022/09/13 07:59:16;;;;;;;0.50;0.50;;;18.60;75.50;;;18.77;60.63;94686.66;4996879;28;20219;-80
2022/09/13 08:01:49;;;;;;;0.50;0.50;;;18.70;75.20;;;18.86;60.31;94683.28;5006719;28;20604;-81
2022/09/13 08:04:24;;;;;;;0.50;0.50;;;18.80;75.00;;;19.05;60.52;94688.28;5014151;28;20372;-81
2022/09/13 08:06:51;;;;;;;0.40;0.40;;;19.00;75.30;;;19.18;60.12;94687.09;5024073;28;20462;-81
2022/09/13 08:09:18;;;;;;;0.40;0.40;;;19.10;75.10;;;19.33;59.55;94675.78;5013904;28;20246;-80
2022/09/13 08:11:50;;;;;;;0.45;0.45;;;19.30;75.00;;;19.47;59.20;94678.81;5010658;28;20220;-81
2022/09/13 08:14:21;;;;;;;0.40;0.40;;;19.40;74.80;;;19.59;59.37;94670.69;5012358;28;20197;-82
2022/09/13 08:16:48;;;;;;;0.40;0.40;;;19.50;74.90;;;19.68;59.58;94674.50;5025687;28;20238;-80
2022/09/13 08:19:17;;;;;;;0.43;0.43;;;19.60;74.70;;;19.81;58.83;94676.72;5032204;28;20188;-82
2022/09/13 08:21:45;;;;;;;0.40;0.40;;;19.80;74.40;;;19.89;58.97;94670.13;5012730;28;20319;-81
2022/09/13 08:24:20;;;;;;;0.40;0.40;;;19.80;74.20;;;19.98;58.87;94678.44;4979889;28;20221;-81
2022/09/13 08:26:47;;;;;;;0.40;0.40;;;19.90;74.00;;;20.05;58.57;94672.91;4997086;28;20219;-81
2022/09/13 08:29:16;;;;;;;0.40;0.40;;;20.00;74.00;;;20.09;58.53;94672.13;5015407;28;20215;-82
2022/09/13 08:31:43;;;;;;;0.40;0.40;;;20.10;73.90;;;20.18;58.67;94667.13;5030872;28;20686;-81
2022/09/13 08:34:13;;;;;;;0.40;0.40;;;20.20;73.80;;;20.26;58.62;94671.13;5048366;28;20201;-81
2022/09/13 08:36:42;;;;;;;0.40;0.40;;;20.20;73.60;;;20.33;58.24;94671.72;5018418;28;20583;-80
2022/09/13 08:39:12;;;;;;;0.50;0.50;;;20.30;73.60;;;20.39;58.35;94659.22;4999100;28;20198;-82
2022/09/13 08:41:44;;;;;;;0.40;0.40;;;20.40;73.40;;;20.48;57.87;94662.97;5015828;28;20209;-81
2022/09/13 08:44:32;;;;;;;0.30;0.30;;;20.40;73.20;;;20.54;57.64;94664.59;5031426;28;20238;-81
2022/09/13 08:47:34;;;;;;;0.40;0.40;;;20.50;73.10;;;20.62;57.82;94655.31;5029805;28;20254;-81
2022/09/13 08:50:11;;;;;;;0.43;0.43;;;20.60;72.80;;;20.69;56.88;94655.06;5020779;28;20213;-80
2022/09/13 08:53:16;;;;;;;0.40;0.40;;;20.60;71.90;;;20.81;56.89;94655.66;5015626;28;20232;-80
2022/09/13 08:55:56;;;;;;;0.50;0.50;;;20.70;71.30;;;20.88;56.47;94655.41;5027875;28;20197;-80
2022/09/13 08:58:56;;;;;;;0.40;0.40;;;20.80;71.40;;;21.00;56.06;94655.19;5015336;28;20209;-80
2022/09/13 09:01:43;;;;;;;0.40;0.40;;;20.90;71.40;;;21.12;56.14;94663.75;5015019;28;20251;-80
2022/09/13 09:04:50;;;;;;;0.50;0.50;;;21.00;71.70;;;21.24;55.87;94666.94;4992145;28;20246;-81
2022/09/13 09:07:26;;;;;;;0.30;0.30;;;21.20;71.30;;;21.37;55.48;94670.16;5003117;28;20219;-80
2022/09/13 09:10:05;;;;;;;0.40;0.40;;;21.30;70.50;;;21.46;55.20;94668.56;4994909;28;20196;-80
2022/09/13 09:12:43;;;;;;;0.40;0.40;;;21.40;70.50;;;21.56;55.29;94670.44;5011543;28;20224;-81
2022/09/13 09:15:32;;;;;;;0.40;0.40;;;21.50;70.40;;;21.68;55.08;94667.50;5007360;28;20207;-80
2022/09/13 09:18:03;;;;;;;0.50;0.50;;;21.60;70.50;;;21.82;54.85;94662.44;4995420;28;20231;-80
2022/09/13 09:20:43;;;;;;;0.50;0.50;;;21.70;70.70;;;21.95;54.55;94663.75;5011868;28;20211;-81
2022/09/13 09:23:21;;;;;;;0.50;0.50;;;21.90;70.20;;;22.10;54.46;94665.63;4995162;28;20628;-79
2022/09/13 09:26:08;;;;;;;0.50;0.50;;;22.00;69.90;;;22.25;55.06;94656.75;5020597;28;20212;-79
2022/09/13 09:28:35;;;;;;;0.40;0.40;;;22.10;70.00;;;22.35;52.62;94651.38;5030965;28;20559;-80
2022/09/13 09:31:19;;;;;;;0.50;0.50;;;22.20;69.00;;;22.49;53.38;94657.75;5046487;28;20276;-79
2022/09/13 09:34:17;;;;;;;0.38;0.38;;;22.40;69.60;;;22.59;52.11;94653.44;5030922;28;20200;-80
2022/09/13 09:37:26;;;;;;;0.40;0.40;;;22.50;68.10;;;22.71;52.25;94649.38;5026662;28;20259;-81
2022/09/13 09:40:00;;;;;;;0.50;0.50;;;22.70;68.60;;;22.82;52.45;94638.63;5022818;28;20561;-79
2022/09/13 09:42:39;;;;;;;0.30;0.30;;;22.80;68.50;;;22.89;51.69;94635.66;5029703;28;20229;-80
2022/09/13 09:45:27;;;;;;;0.70;0.70;;;22.80;68.10;;;22.95;51.57;94630.00;5030845;28;20192;-79
2022/09/13 09:48:00;;;;;;;0.40;0.40;;;23.00;68.00;;;23.03;51.91;94637.44;5011992;28;20574;-80
2022/09/13 09:50:37;;;;;;;0.50;0.50;;;23.00;67.80;;;23.06;50.97;94646.78;5010449;28;20221;-79
2022/09/13 09:53:24;;;;;;;0.40;0.40;;;23.10;67.20;;;23.07;49.93;94640.38;4994841;28;20694;-80
2022/09/13 09:56:21;;;;;;;0.50;0.50;;;23.10;66.60;;;23.07;49.50;94647.56;5004290;28;20243;-79
2022/09/13 09:58:49;;;;;;;0.40;0.40;;;23.10;65.70;;;23.09;50.22;94634.72;5027682;28;20209;-80
2022/09/13 10:01:26;;;;;;;0.40;0.40;;;23.10;66.00;;;23.12;49.03;94639.50;5010904;28;20220;-78
2022/09/13 10:04:07;;;;;;;0.38;0.38;;;23.10;65.40;;;23.08;46.99;94643.84;5032432;28;20303;-79
2022/09/13 10:06:38;;;;;;;0.40;0.40;;;23.10;64.70;;;23.02;45.80;94638.53;5016393;28;20228;-79
2022/09/13 10:09:21;;;;;;;0.40;0.40;;;23.10;63.40;;;23.00;45.78;94629.97;5010990;28;20207;-79
2022/09/13 10:11:57;;;;;;;0.47;0.47;;;23.10;63.40;;;23.01;47.23;94642.25;5010502;28;21584;-78
2022/09/13 10:14:33;;;;;;;0.30;0.30;;;23.10;63.50;;;23.06;47.00;94644.13;5000462;28;20542;-80
2022/09/13 10:17:33;;;;;;;0.40;0.40;;;23.10;63.90;;;23.06;46.80;94630.75;5010569;28;20710;-78
2022/09/13 10:20:19;;;;;;;0.30;0.30;;;23.10;63.70;;;23.11;47.10;94632.59;4957551;28;20229;-80
2022/09/13 10:23:15;;;;;;;0.60;0.60;;;23.00;63.80;;;23.20;47.21;94627.47;5015405;28;20220;-81
2022/09/13 10:25:57;;;;;;;0.45;0.45;;;23.10;64.40;;;23.26;46.95;94621.78;5016131;28;20580;-80
2022/09/13 10:28:25;;;;;;;0.40;0.40;;;23.20;63.80;;;23.30;46.59;94622.84;4997694;28;20205;-80
2022/09/13 10:31:08;;;;;;;0.30;0.30;;;23.20;63.60;;;23.33;46.65;94635.66;5013470;28;20279;-81
2022/09/13 10:33:50;;;;;;;0.50;0.50;;;23.30;63.50;;;23.34;46.05;94634.56;5006037;28;20304;-81
2022/09/13 10:36:26;;;;;;;0.32;0.32;;;23.30;63.50;;;23.41;46.83;94636.94;5006332;28;20215;-81
2022/09/13 10:39:17;;;;;;;0.40;0.40;;;23.30;63.70;;;23.45;47.20;94619.25;5012997;28;20196;-81
2022/09/13 10:42:12;;;;;;;0.30;0.30;;;23.40;64.00;;;23.51;47.72;94620.00;5019971;28;20227;-80
2022/09/13 10:44:57;;;;;;;0.50;0.50;;;23.50;64.80;;;23.56;46.03;94611.94;5011576;28;20707;-81
2022/09/13 10:47:30;;;;;;;0.50;0.50;;;23.50;62.80;;;23.60;46.09;94612.94;5030160;28;20228;-81
2022/09/13 10:50:00;;;;;;;0.40;0.40;;;23.50;62.90;;;23.61;45.67;94609.19;5021089;28;20303;-81
2022/09/13 10:52:37;;;;;;;0.30;0.30;;;23.50;62.70;;;23.68;46.15;94606.22;4997697;28;20244;-80
2022/09/13 10:55:22;;;;;;;0.45;0.45;;;23.60;62.90;;;23.74;46.50;94612.28;4997513;28;20207;-80
2022/09/13 10:58:15;;;;;;;0.40;0.40;;;23.60;63.40;;;23.81;46.83;94610.91;4998710;28;20227;-80